createdAt,value
2024-04-18T00:01:56.927Z,53.20
2024-04-18T00:04:24.724Z,53.20
2024-04-18T00:07:02.486Z,50.90
2024-04-18T00:09:30.094Z,48.70
2024-04-18T00:11:57.696Z,52.70
2024-04-18T00:14:45.528Z,58.80
2024-04-18T00:17:19.022Z,58.20
2024-04-18T00:19:46.852Z,56.80
2024-04-18T00:22:31.785Z,56.40
2024-04-18T00:25:07.229Z,54.60
2024-04-18T00:27:56.273Z,55.40
2024-04-18T00:30:43.406Z,55.40
2024-04-18T00:33:12.536Z,60.30
2024-04-18T00:35:40.994Z,62.80
2024-04-18T00:38:14.898Z,65.20
2024-04-18T00:40:45.923Z,61.90
2024-04-18T00:43:22.835Z,64.20
2024-04-18T00:48:25.748Z,58.80
2024-04-18T00:50:58.375Z,52.10
2024-04-18T00:53:27.372Z,51.30
2024-04-18T00:55:55.469Z,51.70
2024-04-18T00:58:41.941Z,52.40
2024-04-18T01:01:23.128Z,57.30
2024-04-18T01:03:57.994Z,54.50
2024-04-18T01:06:44.748Z,54.30
2024-04-18T01:09:18.411Z,50.50
2024-04-18T01:12:05.022Z,50.90
2024-04-18T01:14:32.582Z,54.30
2024-04-18T01:17:04.458Z,57.70
2024-04-18T01:19:32.616Z,59.90
2024-04-18T01:22:04.031Z,55.10
2024-04-18T01:24:33.575Z,58.80
2024-04-18T01:27:01.375Z,58.70
2024-04-18T01:29:45.172Z,54.50
2024-04-18T01:32:36.680Z,52.70
2024-04-18T01:35:07.601Z,51.60
2024-04-18T01:37:48.217Z,54.00
2024-04-18T01:40:16.406Z,55.30
2024-04-18T01:42:44.085Z,54.60
2024-04-18T01:45:27.619Z,52.10
2024-04-18T01:48:13.783Z,51.30
2024-04-18T01:51:05.014Z,52.60
2024-04-18T01:53:32.672Z,51.60
2024-04-18T01:56:00.179Z,50.80
2024-04-18T01:58:47.214Z,54.30
2024-04-18T02:01:15.087Z,52.80
2024-04-18T02:03:43.040Z,52.40
2024-04-18T02:06:13.918Z,56.80
2024-04-18T02:08:47.865Z,54.50
2024-04-18T02:11:18.528Z,52.30
2024-04-18T02:14:06.070Z,48.20
2024-04-18T02:16:33.639Z,48.50
2024-04-18T02:19:30.691Z,47.60
2024-04-18T02:22:17.173Z,46.40
2024-04-18T02:25:04.115Z,54.40
2024-04-18T02:27:32.164Z,50.80
2024-04-18T02:30:20.945Z,51.10
2024-04-18T02:32:50.692Z,48.30
2024-04-18T02:35:18.436Z,48.40
2024-04-18T02:38:01.304Z,50.40
2024-04-18T02:40:28.912Z,49.80
2024-04-18T02:43:02.903Z,50.60
2024-04-18T02:45:33.345Z,48.90
2024-04-18T02:48:19.548Z,47.40
2024-04-18T02:50:47.220Z,46.30
2024-04-18T02:53:14.769Z,44.30
2024-04-18T02:56:01.115Z,40.90
2024-04-18T02:58:31.955Z,42.60
2024-04-18T03:01:18.093Z,43.80
2024-04-18T03:03:45.872Z,46.40
2024-04-18T03:06:13.589Z,44.90
2024-04-18T03:08:41.117Z,38.00
2024-04-18T03:11:17.951Z,37.00
2024-04-18T03:14:04.623Z,34.00
2024-04-18T03:16:32.966Z,36.30
2024-04-18T03:19:33.192Z,33.30
2024-04-18T03:22:00.839Z,32.90
2024-04-18T03:24:28.427Z,38.20
2024-04-18T03:26:56.006Z,35.70
2024-04-18T03:29:23.752Z,36.40
2024-04-18T03:32:00.581Z,40.80
2024-04-18T03:34:46.287Z,38.80
2024-04-18T03:37:13.910Z,39.10
2024-04-18T03:39:41.528Z,38.20
2024-04-18T03:42:09.227Z,38.50
2024-04-18T03:45:03.114Z,40.90
2024-04-18T03:47:30.770Z,47.40
2024-04-18T03:50:10.782Z,45.90
2024-04-18T03:52:39.562Z,41.50
2024-04-18T03:55:26.202Z,39.30
2024-04-18T03:57:53.965Z,38.00
2024-04-18T04:00:42.852Z,38.00
2024-04-18T04:03:10.878Z,40.10
2024-04-18T04:05:38.500Z,38.40
2024-04-18T04:08:06.782Z,40.40
2024-04-18T04:13:08.852Z,45.10
2024-04-18T04:15:52.374Z,38.20
2024-04-18T04:18:39.985Z,35.30
2024-04-18T04:21:26.416Z,32.90
2024-04-18T04:23:55.176Z,30.50
2024-04-18T04:26:43.515Z,30.30
2024-04-18T04:29:12.094Z,30.50
2024-04-18T04:31:40.075Z,32.30
2024-04-18T04:34:08.596Z,31.40
2024-04-18T04:36:36.218Z,32.30
2024-04-18T04:39:04.019Z,34.90
2024-04-18T04:41:41.143Z,35.40
2024-04-18T04:44:08.863Z,37.80
2024-04-18T04:46:52.259Z,33.60
2024-04-18T04:49:20.511Z,36.00
2024-04-18T04:52:04.993Z,35.70
2024-04-18T04:54:45.798Z,34.90
2024-04-18T04:57:14.748Z,35.90
2024-04-18T04:59:44.342Z,36.90
2024-04-18T05:02:12.232Z,39.40
2024-04-18T05:04:49.761Z,38.70
2024-04-18T05:07:33.120Z,35.70
2024-04-18T05:10:20.778Z,35.70
2024-04-18T05:12:49.697Z,35.90
2024-04-18T05:15:36.757Z,37.10
2024-04-18T05:18:10.928Z,37.30
2024-04-18T05:20:39.254Z,41.00
2024-04-18T05:23:08.251Z,37.90
2024-04-18T05:25:36.444Z,36.80
2024-04-18T05:28:31.169Z,36.30
2024-04-18T05:31:02.636Z,34.20
2024-04-18T05:33:31.551Z,31.70
2024-04-18T05:35:59.680Z,30.30
2024-04-18T05:38:28.094Z,32.30
2024-04-18T05:40:57.076Z,38.40
2024-04-18T05:43:44.674Z,32.60
2024-04-18T05:46:12.248Z,29.90
2024-04-18T05:48:39.880Z,29.90
2024-04-18T05:51:07.527Z,35.40
2024-04-18T05:53:53.519Z,39.10
2024-04-18T05:56:29.806Z,34.40
2024-04-18T05:58:57.400Z,40.90
2024-04-18T06:01:25.095Z,38.00
2024-04-18T06:03:52.836Z,44.10
2024-04-18T06:06:20.500Z,44.90
2024-04-18T06:08:48.135Z,37.90
2024-04-18T06:11:16.884Z,38.90
2024-04-18T06:13:44.565Z,35.40
2024-04-18T06:16:12.208Z,45.80
2024-04-18T06:19:05.804Z,44.00
2024-04-18T06:21:34.177Z,42.70
2024-04-18T06:24:01.764Z,42.60
2024-04-18T06:26:29.478Z,44.80
2024-04-18T06:28:57.015Z,40.50
2024-04-18T06:31:39.524Z,43.90
2024-04-18T06:34:07.262Z,42.70
2024-04-18T06:36:34.916Z,44.10
2024-04-18T06:39:02.556Z,43.10
2024-04-18T06:41:30.115Z,40.80
2024-04-18T06:43:58.600Z,45.90
2024-04-18T06:46:28.117Z,43.30
2024-04-18T06:48:55.679Z,39.30
2024-04-18T06:51:23.437Z,36.90
2024-04-18T06:53:51.009Z,38.60
2024-04-18T06:56:20.337Z,37.70
2024-04-18T06:58:50.470Z,36.20
2024-04-18T07:01:38.122Z,40.40
2024-04-18T07:04:07.029Z,37.10
2024-04-18T07:06:34.894Z,40.00
2024-04-18T07:09:05.413Z,45.30
2024-04-18T07:11:45.694Z,48.40
2024-04-18T07:14:13.556Z,37.30
2024-04-18T07:16:41.176Z,50.30
2024-04-18T07:19:27.686Z,33.90
2024-04-18T07:21:55.546Z,39.70
2024-04-18T07:24:27.257Z,33.90
2024-04-18T07:26:56.914Z,33.90
2024-04-18T07:29:25.011Z,32.90
2024-04-18T07:31:52.613Z,30.30
2024-04-18T07:34:20.433Z,30.50
2024-04-18T07:36:49.168Z,29.90
2024-04-18T07:39:17.470Z,30.50
2024-04-18T07:41:45.064Z,30.00
2024-04-18T07:44:13.285Z,28.20
2024-04-18T07:46:41.350Z,26.90
2024-04-18T07:49:09.794Z,29.20
2024-04-18T07:51:39.224Z,28.40
2024-04-18T07:54:07.306Z,23.20
2024-04-18T07:56:35.260Z,20.60
2024-04-18T07:59:04.820Z,22.80
2024-04-18T08:01:34.376Z,22.90
2024-04-18T08:04:25.927Z,25.10
2024-04-18T08:06:55.154Z,19.00
2024-04-18T08:09:27.973Z,18.80
2024-04-18T08:14:32.620Z,19.60
2024-04-18T08:17:03.289Z,21.80
2024-04-18T08:19:30.982Z,22.20
2024-04-18T08:21:59.201Z,25.30
2024-04-18T08:24:29.008Z,28.90
2024-04-18T08:27:09.583Z,26.80
2024-04-18T08:29:37.704Z,29.00
2024-04-18T08:32:05.658Z,35.90
2024-04-18T08:34:36.988Z,38.00
2024-04-18T08:37:06.171Z,37.90
2024-04-18T08:39:33.767Z,36.70
2024-04-18T08:42:02.601Z,39.40
2024-04-18T08:44:30.303Z,34.20
2024-04-18T08:46:59.247Z,29.70
2024-04-18T08:49:27.970Z,27.90
2024-04-18T08:51:55.676Z,31.50
2024-04-18T08:54:23.422Z,35.80
2024-04-18T08:56:53.764Z,31.30
2024-04-18T08:59:23.715Z,29.60
2024-04-18T09:01:52.871Z,27.70
2024-04-18T09:04:20.515Z,26.70
2024-04-18T09:06:48.380Z,24.80
2024-04-18T09:09:18.134Z,22.20
2024-04-18T09:11:48.172Z,22.00
2024-04-18T09:14:16.278Z,20.20
2024-04-18T09:16:44.986Z,27.00
2024-04-18T09:19:13.866Z,25.00
2024-04-18T09:21:42.255Z,52.90
2024-04-18T09:24:10.045Z,47.10
2024-04-18T09:26:37.780Z,48.50
2024-04-18T09:29:05.689Z,31.00
2024-04-18T09:31:38.483Z,26.80
2024-04-18T09:34:16.961Z,26.40
2024-04-18T09:36:46.428Z,23.00
2024-04-18T09:39:24.662Z,18.50
2024-04-18T09:42:01.601Z,14.70
2024-04-18T09:44:32.019Z,12.70
2024-04-18T09:47:01.669Z,12.60
2024-04-18T09:49:30.010Z,13.00
2024-04-18T09:51:58.620Z,12.70
2024-04-18T09:54:27.002Z,13.10
2024-04-18T09:56:56.109Z,13.20
2024-04-18T09:59:24.255Z,13.40
2024-04-18T10:01:53.033Z,11.70
2024-04-18T10:04:22.237Z,11.10
2024-04-18T10:06:51.460Z,14.80
2024-04-18T10:09:22.068Z,11.10
2024-04-18T10:11:50.255Z,12.40
2024-04-18T10:14:18.213Z,12.60
2024-04-18T10:16:50.167Z,12.90
2024-04-18T10:19:22.772Z,13.00
2024-04-18T10:22:11.017Z,12.00
2024-04-18T10:24:50.511Z,10.20
2024-04-18T10:27:21.746Z,9.00
2024-04-18T10:30:00.537Z,9.80
2024-04-18T10:32:29.962Z,10.90
2024-04-18T10:35:03.349Z,11.40
2024-04-18T10:37:30.985Z,8.60
2024-04-18T10:39:58.918Z,11.80
2024-04-18T10:42:26.889Z,12.80
2024-04-18T10:44:54.739Z,12.20
2024-04-18T10:47:23.206Z,10.60
2024-04-18T10:49:51.141Z,11.40
2024-04-18T10:52:19.376Z,12.60
2024-04-18T10:54:47.386Z,11.00
2024-04-18T10:57:15.520Z,13.00
2024-04-18T10:59:48.614Z,12.40
2024-04-18T11:02:16.670Z,12.20
2024-04-18T11:04:45.536Z,8.50
2024-04-18T11:07:13.205Z,6.60
2024-04-18T11:09:41.959Z,9.70
2024-04-18T11:12:10.604Z,5.50
2024-04-18T11:14:38.569Z,7.30
2024-04-18T11:17:07.974Z,7.80
2024-04-18T11:19:36.337Z,5.90
2024-04-18T11:22:04.473Z,6.60
2024-04-18T11:24:32.135Z,6.80
2024-04-18T11:29:32.671Z,6.70
2024-04-18T11:32:13.504Z,6.60
2024-04-18T11:34:50.196Z,7.10
2024-04-18T11:37:19.986Z,7.20
2024-04-18T11:39:47.779Z,5.80
2024-04-18T11:42:15.463Z,5.30
2024-04-18T11:44:43.183Z,5.70
2024-04-18T11:47:10.891Z,8.50
2024-04-18T11:49:39.563Z,8.20
2024-04-18T11:52:08.312Z,11.20
2024-04-18T11:54:36.188Z,8.40
2024-04-18T11:57:04.291Z,7.00
2024-04-18T11:59:36.040Z,9.10
2024-04-18T12:02:04.086Z,6.60
2024-04-18T12:04:51.385Z,6.20
2024-04-18T12:07:19.132Z,7.40
2024-04-18T12:09:49.658Z,6.30
2024-04-18T12:12:17.380Z,5.10
2024-04-18T12:14:48.763Z,8.10
2024-04-18T12:17:30.047Z,6.00
2024-04-18T12:20:24.846Z,5.10
2024-04-18T12:22:52.424Z,6.20
2024-04-18T12:25:20.126Z,7.60
2024-04-18T12:27:48.092Z,6.80
2024-04-18T12:30:31.801Z,6.30
2024-04-18T12:33:18.773Z,6.00
2024-04-18T12:35:48.165Z,8.50
2024-04-18T12:38:15.759Z,7.30
2024-04-18T12:40:46.527Z,8.40
2024-04-18T12:43:16.454Z,8.20
2024-04-18T12:46:10.686Z,9.30
2024-04-18T12:48:52.863Z,8.60
2024-04-18T12:51:20.819Z,9.80
2024-04-18T12:53:48.723Z,8.50
2024-04-18T12:56:16.491Z,9.00
2024-04-18T12:58:44.233Z,8.50
2024-04-18T13:01:13.059Z,11.60
2024-04-18T13:03:42.799Z,11.00
2024-04-18T13:06:29.924Z,9.40
2024-04-18T13:09:00.425Z,10.80
2024-04-18T13:11:43.702Z,8.40
2024-04-18T13:14:11.442Z,7.70
2024-04-18T13:16:39.121Z,7.60
2024-04-18T13:19:13.082Z,8.20
2024-04-18T13:21:42.951Z,7.60
2024-04-18T13:24:12.224Z,7.30
2024-04-18T13:26:52.995Z,8.30
2024-04-18T13:29:21.418Z,8.10
2024-04-18T13:31:49.226Z,8.00
2024-04-18T13:34:20.945Z,7.70
2024-04-18T13:36:48.973Z,8.40
2024-04-18T13:39:19.439Z,7.50
2024-04-18T13:42:04.899Z,8.80
2024-04-18T13:44:53.665Z,11.10
2024-04-18T13:47:25.051Z,9.10
2024-04-18T13:49:53.546Z,7.80
2024-04-18T13:52:21.112Z,9.50
2024-04-18T13:55:07.486Z,10.60
2024-04-18T13:57:35.360Z,9.30
2024-04-18T14:00:30.627Z,8.70
2024-04-18T14:03:20.676Z,8.20
2024-04-18T14:06:06.570Z,8.60
2024-04-18T14:08:41.464Z,7.30
2024-04-18T14:11:28.856Z,6.90
2024-04-18T14:14:11.571Z,8.50
2024-04-18T14:17:17.808Z,9.30
2024-04-18T14:20:04.349Z,9.40
2024-04-18T14:22:32.055Z,9.30
2024-04-18T14:24:59.789Z,11.80
2024-04-18T14:27:33.453Z,14.30
2024-04-18T14:30:01.076Z,9.00
2024-04-18T14:32:33.908Z,9.40
2024-04-18T14:35:05.382Z,9.90
2024-04-18T14:37:33.180Z,11.40
2024-04-18T14:40:01.323Z,9.60
2024-04-18T14:42:29.010Z,17.30
2024-04-18T14:44:56.660Z,13.50
2024-04-18T14:47:24.527Z,14.70
2024-04-18T14:50:00.156Z,13.90
2024-04-18T14:52:37.720Z,18.90
2024-04-18T14:55:30.104Z,12.30
2024-04-18T14:58:20.403Z,13.80
2024-04-18T15:00:52.990Z,12.50
2024-04-18T15:03:21.640Z,11.20
2024-04-18T15:05:55.951Z,12.50
2024-04-18T15:08:41.620Z,11.20
2024-04-18T15:11:25.467Z,59.00
2024-04-18T15:14:04.940Z,34.30
2024-04-18T15:16:33.108Z,17.50
2024-04-18T15:19:00.868Z,13.70
2024-04-18T15:21:29.995Z,12.70
2024-04-18T15:24:13.290Z,12.10
2024-04-18T15:27:00.742Z,11.00
2024-04-18T15:29:28.849Z,10.80
2024-04-18T15:32:15.387Z,10.70
2024-04-18T15:34:49.535Z,10.00
2024-04-18T15:37:36.054Z,8.10
2024-04-18T15:40:04.498Z,11.50
2024-04-18T15:42:32.144Z,10.20
2024-04-18T15:45:00.963Z,10.20
2024-04-18T15:47:34.204Z,10.50
2024-04-18T15:50:24.408Z,15.20
2024-04-18T15:52:53.540Z,10.80
2024-04-18T15:55:33.536Z,11.00
2024-04-18T15:58:19.748Z,13.00
2024-04-18T16:00:47.478Z,10.60
2024-04-18T16:03:34.286Z,13.90
2024-04-18T16:06:24.640Z,10.90
2024-04-18T16:09:11.470Z,11.60
2024-04-18T16:11:41.975Z,10.90
2024-04-18T16:14:29.166Z,9.00
2024-04-18T16:16:56.813Z,9.80
2024-04-18T16:19:39.957Z,9.60
2024-04-18T16:22:07.546Z,10.10
2024-04-18T16:24:50.311Z,8.20
2024-04-18T16:27:17.939Z,9.20
2024-04-18T16:30:00.945Z,10.10
2024-04-18T16:32:49.185Z,11.10
2024-04-18T16:35:17.544Z,12.10
2024-04-18T16:37:46.057Z,9.30
2024-04-18T16:40:17.047Z,9.60
2024-04-18T16:43:03.300Z,11.30
2024-04-18T16:45:52.046Z,10.60
2024-04-18T16:48:19.780Z,10.20
2024-04-18T16:50:47.469Z,10.70
2024-04-18T16:53:15.097Z,11.60
2024-04-18T16:55:46.391Z,12.70
2024-04-18T16:58:17.702Z,12.40
2024-04-18T17:00:55.759Z,13.30
2024-04-18T17:03:23.850Z,14.30
2024-04-18T17:06:04.232Z,15.90
2024-04-18T17:08:32.989Z,14.30
2024-04-18T17:11:01.302Z,11.00
2024-04-18T17:13:49.870Z,11.80
2024-04-18T17:16:17.486Z,12.40
2024-04-18T17:18:48.271Z,12.40
2024-04-18T17:21:16.264Z,11.00
2024-04-18T17:23:43.912Z,11.60
2024-04-18T17:26:11.473Z,12.40
2024-04-18T17:28:39.298Z,13.20
2024-04-18T17:31:07.008Z,14.50
2024-04-18T17:33:34.666Z,13.60
2024-04-18T17:36:02.689Z,15.00
2024-04-18T17:38:46.735Z,17.90
2024-04-18T17:41:31.166Z,17.50
2024-04-18T17:44:17.481Z,17.80
2024-04-18T17:46:58.503Z,19.10
2024-04-18T17:49:27.049Z,18.20
2024-04-18T17:51:55.180Z,21.30
2024-04-18T17:54:23.062Z,19.40
2024-04-18T17:56:51.341Z,18.30
2024-04-18T17:59:20.231Z,21.80
2024-04-18T18:01:47.967Z,20.80
2024-04-18T18:04:15.857Z,17.70
2024-04-18T18:06:43.571Z,18.60
2024-04-18T18:09:11.326Z,17.80
2024-04-18T18:11:38.964Z,18.90
2024-04-18T18:14:06.636Z,19.10
2024-04-18T18:16:53.125Z,19.80
2024-04-18T18:19:21.316Z,19.40
2024-04-18T18:21:58.142Z,22.40
2024-04-18T18:24:25.987Z,29.60
2024-04-18T18:26:53.583Z,31.00
2024-04-18T18:29:23.112Z,31.40
2024-04-18T18:32:13.891Z,31.90
2024-04-18T18:34:51.268Z,34.10
2024-04-18T18:37:19.445Z,30.10
2024-04-18T18:40:07.661Z,29.10
2024-04-18T18:42:35.498Z,25.70
2024-04-18T18:45:07.452Z,24.80
2024-04-18T18:47:35.347Z,25.60
2024-04-18T18:50:19.591Z,23.20
2024-04-18T18:52:47.519Z,22.50
2024-04-18T18:55:36.293Z,23.70
2024-04-18T18:58:04.590Z,22.10
2024-04-18T19:00:32.398Z,21.10
2024-04-18T19:03:20.521Z,17.10
2024-04-18T19:05:50.914Z,17.00
2024-04-18T19:08:18.569Z,16.60
2024-04-18T19:10:55.353Z,15.40
2024-04-18T19:13:23.000Z,14.10
2024-04-18T19:15:58.530Z,15.50
2024-04-18T19:18:26.458Z,14.60
2024-04-18T19:20:54.183Z,13.90
2024-04-18T19:23:39.440Z,12.40
2024-04-18T19:26:10.091Z,12.20
2024-04-18T19:28:38.727Z,13.30
2024-04-18T19:31:08.210Z,11.80
2024-04-18T19:33:36.323Z,12.40
2024-04-18T19:36:04.513Z,12.20
2024-04-18T19:38:33.339Z,13.20
2024-04-18T19:41:19.932Z,11.50
2024-04-18T19:43:47.590Z,12.40
2024-04-18T19:46:15.200Z,11.90
2024-04-18T19:49:04.060Z,11.70
2024-04-18T19:51:51.562Z,13.80
2024-04-18T19:54:19.252Z,15.70
2024-04-18T19:56:46.828Z,17.10
2024-04-18T19:59:14.489Z,14.70
2024-04-18T20:01:42.247Z,12.00
2024-04-18T20:04:10.895Z,11.00
2024-04-18T20:06:39.742Z,10.90
2024-04-18T20:09:07.478Z,12.80
2024-04-18T20:11:35.381Z,12.30
2024-04-18T20:14:03.128Z,14.20
2024-04-18T20:16:30.699Z,16.00
2024-04-18T20:19:14.584Z,16.00
2024-04-18T20:21:43.708Z,16.40
2024-04-18T20:24:13.002Z,16.70
2024-04-18T20:27:06.947Z,15.50
2024-04-18T20:29:56.735Z,15.00
2024-04-18T20:32:25.657Z,19.70
2024-04-18T20:34:54.440Z,16.10
2024-04-18T20:37:23.503Z,16.90
2024-04-18T20:39:55.367Z,16.60
2024-04-18T20:42:25.338Z,19.70
2024-04-18T20:45:05.854Z,20.40
2024-04-18T20:47:34.072Z,21.50
2024-04-18T20:50:08.610Z,18.80
2024-04-18T20:52:36.656Z,20.10
2024-04-18T20:55:04.843Z,20.00
2024-04-18T20:57:32.532Z,21.50
2024-04-18T21:00:00.326Z,21.10
2024-04-18T21:02:28.654Z,24.00
2024-04-18T21:04:56.590Z,24.80
2024-04-18T21:07:24.213Z,25.80
2024-04-18T21:09:55.198Z,27.40
2024-04-18T21:12:24.999Z,25.30
2024-04-18T21:14:54.142Z,25.80
2024-04-18T21:17:21.961Z,27.20
2024-04-18T21:19:49.859Z,27.10
2024-04-18T21:22:17.873Z,28.20
2024-04-18T21:24:45.651Z,27.90
2024-04-18T21:27:13.556Z,30.00
2024-04-18T21:29:41.146Z,30.30
2024-04-18T21:32:08.890Z,26.70
2024-04-18T21:34:36.785Z,25.90
2024-04-18T21:37:04.543Z,29.60
2024-04-18T21:39:39.067Z,31.60
2024-04-18T21:42:06.725Z,34.80
2024-04-18T21:44:34.360Z,37.00
2024-04-18T21:47:01.955Z,34.50
2024-04-18T21:49:29.576Z,36.30
2024-04-18T21:51:57.131Z,43.60
2024-04-18T21:54:24.710Z,33.60
2024-04-18T21:56:52.256Z,51.10
2024-04-18T21:59:19.987Z,37.30
2024-04-18T22:01:47.608Z,36.60
2024-04-18T22:04:15.454Z,36.30
2024-04-18T22:06:43.298Z,35.60
2024-04-18T22:09:11.231Z,34.30
2024-04-18T22:11:39.190Z,32.30
2024-04-18T22:14:09.986Z,37.60
2024-04-18T22:16:37.901Z,36.20
2024-04-18T22:19:05.544Z,38.40
2024-04-18T22:21:40.150Z,39.50
2024-04-18T22:24:08.159Z,38.40
2024-04-18T22:26:36.807Z,36.00
2024-04-18T22:29:04.791Z,39.90
2024-04-18T22:31:32.369Z,38.50
2024-04-18T22:34:00.091Z,40.40
2024-04-18T22:36:28.001Z,42.90
2024-04-18T22:38:57.334Z,40.30
2024-04-18T22:41:26.985Z,40.60
2024-04-18T22:43:55.188Z,40.00
2024-04-18T22:46:22.860Z,37.20
2024-04-18T22:48:50.614Z,37.10
2024-04-18T22:51:18.407Z,39.70
2024-04-18T22:53:46.067Z,37.30
2024-04-18T22:56:13.629Z,36.30
2024-04-18T22:58:41.267Z,35.10
2024-04-18T23:01:09.013Z,31.20
2024-04-18T23:03:37.759Z,30.20
2024-04-18T23:06:15.498Z,33.50
2024-04-18T23:08:43.980Z,33.00
2024-04-18T23:11:13.891Z,30.90
2024-04-18T23:13:41.662Z,32.40
2024-04-18T23:16:09.311Z,33.00
2024-04-18T23:18:37.170Z,30.30
2024-04-18T23:21:05.200Z,30.70
2024-04-18T23:23:35.738Z,30.40
2024-04-18T23:26:03.793Z,31.20
2024-04-18T23:28:31.564Z,30.90
2024-04-18T23:30:59.305Z,31.40
2024-04-18T23:33:27.104Z,31.40
2024-04-18T23:35:54.787Z,31.50
2024-04-18T23:38:22.483Z,31.70
2024-04-18T23:40:50.378Z,34.10
2024-04-18T23:43:18.779Z,33.10
2024-04-18T23:45:46.582Z,30.40
2024-04-18T23:48:14.405Z,29.20
2024-04-18T23:50:42.397Z,27.90
2024-04-18T23:53:10.164Z,27.40
2024-04-18T23:55:40.259Z,27.80
2024-04-18T23:58:07.918Z,27.80
